sensor_id;sensor_type;location;lat;lon;timestamp;P1;durP1;ratioP1;P2;durP2;ratioP2
2934;SDS011;2462;51.456;7.248;2023-04-24T00:01:40;1.10;;;1.00;;
2934;SDS011;2462;51.456;7.248;2023-04-24T00:04:07;1.57;;;1.20;;
2934;SDS011;2462;51.456;7.248;2023-04-24T00:06:36;1.10;;;0.80;;
2934;SDS011;2462;51.456;7.248;2023-04-24T00:09:02;1.00;;;0.90;;
2934;SDS011;2462;51.456;7.248;2023-04-24T00:11:29;1.57;;;1.43;;
2934;SDS011;2462;51.456;7.248;2023-04-24T00:13:55;1.00;;;0.80;;
2934;SDS011;2462;51.456;7.248;2023-04-24T00:16:21;1.20;;;1.03;;
2934;SDS011;2462;51.456;7.248;2023-04-24T00:18:47;1.10;;;0.80;;
2934;SDS011;2462;51.456;7.248;2023-04-24T00:21:14;1.33;;;1.03;;
2934;SDS011;2462;51.456;7.248;2023-04-24T00:23:42;1.00;;;0.90;;
2934;SDS011;2462;51.456;7.248;2023-04-24T00:26:08;1.00;;;0.80;;
2934;SDS011;2462;51.456;7.248;2023-04-24T00:28:34;1.30;;;1.20;;
2934;SDS011;2462;51.456;7.248;2023-04-24T00:31:00;1.70;;;1.10;;
2934;SDS011;2462;51.456;7.248;2023-04-24T00:33:25;1.23;;;1.13;;
2934;SDS011;2462;51.456;7.248;2023-04-24T00:35:51;1.20;;;1.00;;
2934;SDS011;2462;51.456;7.248;2023-04-24T00:38:16;1.03;;;0.93;;
2934;SDS011;2462;51.456;7.248;2023-04-24T00:40:42;1.20;;;0.90;;
2934;SDS011;2462;51.456;7.248;2023-04-24T00:43:07;1.63;;;1.00;;
2934;SDS011;2462;51.456;7.248;2023-04-24T00:45:34;1.30;;;1.10;;
2934;SDS011;2462;51.456;7.248;2023-04-24T00:48:00;1.10;;;0.80;;
2934;SDS011;2462;51.456;7.248;2023-04-24T00:50:27;1.27;;;0.93;;
2934;SDS011;2462;51.456;7.248;2023-04-24T00:52:53;1.10;;;0.90;;
2934;SDS011;2462;51.456;7.248;2023-04-24T00:55:19;1.30;;;1.20;;
2934;SDS011;2462;51.456;7.248;2023-04-24T00:57:45;2.23;;;1.17;;
2934;SDS011;2462;51.456;7.248;2023-04-24T01:00:11;1.07;;;0.87;;
2934;SDS011;2462;51.456;7.248;2023-04-24T01:02:41;1.10;;;0.80;;
2934;SDS011;2462;51.456;7.248;2023-04-24T01:05:10;1.00;;;0.77;;
2934;SDS011;2462;51.456;7.248;2023-04-24T01:07:37;1.10;;;1.00;;
2934;SDS011;2462;51.456;7.248;2023-04-24T01:10:05;1.73;;;0.80;;
2934;SDS011;2462;51.456;7.248;2023-04-24T01:12:32;1.13;;;0.90;;
2934;SDS011;2462;51.456;7.248;2023-04-24T01:14:58;1.70;;;1.00;;
2934;SDS011;2462;51.456;7.248;2023-04-24T01:17:24;2.63;;;1.23;;
2934;SDS011;2462;51.456;7.248;2023-04-24T01:19:50;2.10;;;1.10;;
2934;SDS011;2462;51.456;7.248;2023-04-24T01:22:18;1.70;;;1.00;;
2934;SDS011;2462;51.456;7.248;2023-04-24T01:24:45;1.00;;;0.90;;
2934;SDS011;2462;51.456;7.248;2023-04-24T01:29:36;1.37;;;1.03;;
2934;SDS011;2462;51.456;7.248;2023-04-24T01:32:02;1.00;;;0.87;;
2934;SDS011;2462;51.456;7.248;2023-04-24T01:34:28;1.20;;;0.90;;
2934;SDS011;2462;51.456;7.248;2023-04-24T01:36:54;1.00;;;0.90;;
2934;SDS011;2462;51.456;7.248;2023-04-24T01:39:21;1.20;;;1.00;;
2934;SDS011;2462;51.456;7.248;2023-04-24T01:41:48;1.10;;;1.00;;
2934;SDS011;2462;51.456;7.248;2023-04-24T01:44:15;1.60;;;1.00;;
2934;SDS011;2462;51.456;7.248;2023-04-24T01:46:41;1.20;;;1.10;;
2934;SDS011;2462;51.456;7.248;2023-04-24T01:49:06;1.37;;;1.00;;
2934;SDS011;2462;51.456;7.248;2023-04-24T01:51:32;1.13;;;1.03;;
2934;SDS011;2462;51.456;7.248;2023-04-24T01:53:58;1.57;;;1.00;;
2934;SDS011;2462;51.456;7.248;2023-04-24T01:56:23;1.10;;;1.00;;
2934;SDS011;2462;51.456;7.248;2023-04-24T01:58:50;2.23;;;0.90;;
2934;SDS011;2462;51.456;7.248;2023-04-24T02:01:21;1.00;;;0.90;;
2934;SDS011;2462;51.456;7.248;2023-04-24T02:03:48;1.20;;;1.10;;
2934;SDS011;2462;51.456;7.248;2023-04-24T02:06:14;1.83;;;1.20;;
2934;SDS011;2462;51.456;7.248;2023-04-24T02:08:40;1.10;;;1.00;;
2934;SDS011;2462;51.456;7.248;2023-04-24T02:11:05;1.20;;;0.90;;
2934;SDS011;2462;51.456;7.248;2023-04-24T02:13:31;1.27;;;1.00;;
2934;SDS011;2462;51.456;7.248;2023-04-24T02:15:58;1.00;;;0.90;;
2934;SDS011;2462;51.456;7.248;2023-04-24T02:18:23;1.10;;;0.93;;
2934;SDS011;2462;51.456;7.248;2023-04-24T02:20:49;1.43;;;1.00;;
2934;SDS011;2462;51.456;7.248;2023-04-24T02:23:15;1.23;;;1.00;;
2934;SDS011;2462;51.456;7.248;2023-04-24T02:25:40;1.40;;;1.00;;
2934;SDS011;2462;51.456;7.248;2023-04-24T02:28:06;1.10;;;1.00;;
2934;SDS011;2462;51.456;7.248;2023-04-24T02:30:31;1.60;;;1.10;;
2934;SDS011;2462;51.456;7.248;2023-04-24T02:32:57;1.13;;;1.00;;
2934;SDS011;2462;51.456;7.248;2023-04-24T02:35:22;1.13;;;1.03;;
2934;SDS011;2462;51.456;7.248;2023-04-24T02:37:48;2.60;;;1.10;;
2934;SDS011;2462;51.456;7.248;2023-04-24T02:40:14;1.20;;;1.10;;
2934;SDS011;2462;51.456;7.248;2023-04-24T02:42:39;1.50;;;1.07;;
2934;SDS011;2462;51.456;7.248;2023-04-24T02:45:05;1.40;;;1.30;;
2934;SDS011;2462;51.456;7.248;2023-04-24T02:47:31;1.40;;;1.10;;
2934;SDS011;2462;51.456;7.248;2023-04-24T02:49:56;1.97;;;1.07;;
2934;SDS011;2462;51.456;7.248;2023-04-24T02:52:22;2.00;;;1.80;;
2934;SDS011;2462;51.456;7.248;2023-04-24T02:54:47;1.20;;;0.93;;
2934;SDS011;2462;51.456;7.248;2023-04-24T02:57:13;1.27;;;1.10;;
2934;SDS011;2462;51.456;7.248;2023-04-24T02:59:38;1.97;;;1.73;;
2934;SDS011;2462;51.456;7.248;2023-04-24T03:02:04;1.40;;;1.27;;
2934;SDS011;2462;51.456;7.248;2023-04-24T03:04:30;1.70;;;1.30;;
2934;SDS011;2462;51.456;7.248;2023-04-24T03:06:56;1.30;;;0.90;;
2934;SDS011;2462;51.456;7.248;2023-04-24T03:09:22;1.10;;;1.00;;
2934;SDS011;2462;51.456;7.248;2023-04-24T03:11:48;2.80;;;1.30;;
2934;SDS011;2462;51.456;7.248;2023-04-24T03:14:14;2.30;;;1.37;;
2934;SDS011;2462;51.456;7.248;2023-04-24T03:16:40;1.77;;;1.10;;
2934;SDS011;2462;51.456;7.248;2023-04-24T03:19:05;1.87;;;1.30;;
2934;SDS011;2462;51.456;7.248;2023-04-24T03:21:31;2.00;;;1.30;;
2934;SDS011;2462;51.456;7.248;2023-04-24T03:23:57;1.67;;;1.57;;
2934;SDS011;2462;51.456;7.248;2023-04-24T03:26:22;1.70;;;1.60;;
2934;SDS011;2462;51.456;7.248;2023-04-24T03:28:48;1.63;;;1.53;;
2934;SDS011;2462;51.456;7.248;2023-04-24T03:31:13;2.00;;;1.47;;
2934;SDS011;2462;51.456;7.248;2023-04-24T03:33:40;1.40;;;1.27;;
2934;SDS011;2462;51.456;7.248;2023-04-24T03:36:06;1.30;;;1.20;;
2934;SDS011;2462;51.456;7.248;2023-04-24T03:38:31;2.30;;;1.50;;
2934;SDS011;2462;51.456;7.248;2023-04-24T03:40:57;2.03;;;1.53;;
2934;SDS011;2462;51.456;7.248;2023-04-24T03:43:22;1.70;;;1.60;;
2934;SDS011;2462;51.456;7.248;2023-04-24T03:45:49;2.30;;;1.70;;
2934;SDS011;2462;51.456;7.248;2023-04-24T03:48:15;2.60;;;1.57;;
2934;SDS011;2462;51.456;7.248;2023-04-24T03:50:41;2.10;;;1.90;;
2934;SDS011;2462;51.456;7.248;2023-04-24T03:53:06;2.87;;;2.00;;
2934;SDS011;2462;51.456;7.248;2023-04-24T03:55:32;1.90;;;1.57;;
2934;SDS011;2462;51.456;7.248;2023-04-24T03:57:57;2.80;;;1.63;;
2934;SDS011;2462;51.456;7.248;2023-04-24T04:00:23;1.50;;;1.40;;
2934;SDS011;2462;51.456;7.248;2023-04-24T04:02:49;1.77;;;1.60;;
2934;SDS011;2462;51.456;7.248;2023-04-24T04:05:15;1.87;;;1.77;;
2934;SDS011;2462;51.456;7.248;2023-04-24T04:07:40;2.13;;;1.33;;
2934;SDS011;2462;51.456;7.248;2023-04-24T04:10:06;2.10;;;1.90;;
2934;SDS011;2462;51.456;7.248;2023-04-24T04:12:32;2.00;;;1.67;;
2934;SDS011;2462;51.456;7.248;2023-04-24T04:14:58;1.80;;;1.70;;
2934;SDS011;2462;51.456;7.248;2023-04-24T04:17:23;1.60;;;1.50;;
2934;SDS011;2462;51.456;7.248;2023-04-24T04:19:49;1.80;;;1.70;;
2934;SDS011;2462;51.456;7.248;2023-04-24T04:22:15;3.50;;;1.80;;
2934;SDS011;2462;51.456;7.248;2023-04-24T04:24:41;2.17;;;1.97;;
2934;SDS011;2462;51.456;7.248;2023-04-24T04:27:06;2.93;;;2.37;;
2934;SDS011;2462;51.456;7.248;2023-04-24T04:29:33;4.63;;;2.07;;
2934;SDS011;2462;51.456;7.248;2023-04-24T04:31:59;2.50;;;2.00;;
2934;SDS011;2462;51.456;7.248;2023-04-24T04:34:26;2.30;;;2.10;;
2934;SDS011;2462;51.456;7.248;2023-04-24T04:36:51;2.33;;;2.13;;
2934;SDS011;2462;51.456;7.248;2023-04-24T04:39:17;2.10;;;1.90;;
2934;SDS011;2462;51.456;7.248;2023-04-24T04:41:43;2.00;;;1.80;;
2934;SDS011;2462;51.456;7.248;2023-04-24T04:44:09;2.20;;;2.00;;
2934;SDS011;2462;51.456;7.248;2023-04-24T04:46:34;1.87;;;1.67;;
2934;SDS011;2462;51.456;7.248;2023-04-24T04:49:02;3.43;;;2.70;;
2934;SDS011;2462;51.456;7.248;2023-04-24T04:51:27;2.70;;;2.10;;
2934;SDS011;2462;51.456;7.248;2023-04-24T04:53:53;2.47;;;2.27;;
2934;SDS011;2462;51.456;7.248;2023-04-24T04:56:19;2.20;;;2.00;;
2934;SDS011;2462;51.456;7.248;2023-04-24T04:58:44;2.20;;;2.00;;
2934;SDS011;2462;51.456;7.248;2023-04-24T05:01:10;2.17;;;1.97;;
2934;SDS011;2462;51.456;7.248;2023-04-24T05:03:35;2.87;;;2.60;;
2934;SDS011;2462;51.456;7.248;2023-04-24T05:06:01;2.43;;;2.23;;
2934;SDS011;2462;51.456;7.248;2023-04-24T05:08:27;3.93;;;2.47;;
2934;SDS011;2462;51.456;7.248;2023-04-24T05:10:52;3.10;;;2.70;;
2934;SDS011;2462;51.456;7.248;2023-04-24T05:13:19;2.40;;;2.20;;
2934;SDS011;2462;51.456;7.248;2023-04-24T05:15:45;2.37;;;2.10;;
2934;SDS011;2462;51.456;7.248;2023-04-24T05:18:10;2.53;;;2.33;;
2934;SDS011;2462;51.456;7.248;2023-04-24T05:20:36;3.23;;;2.27;;
2934;SDS011;2462;51.456;7.248;2023-04-24T05:23:01;3.83;;;2.37;;
2934;SDS011;2462;51.456;7.248;2023-04-24T05:25:27;3.00;;;2.70;;
2934;SDS011;2462;51.456;7.248;2023-04-24T05:27:52;4.20;;;2.30;;
2934;SDS011;2462;51.456;7.248;2023-04-24T05:30:18;2.67;;;2.47;;
2934;SDS011;2462;51.456;7.248;2023-04-24T05:32:44;2.43;;;2.23;;
2934;SDS011;2462;51.456;7.248;2023-04-24T05:35:10;2.60;;;2.13;;
2934;SDS011;2462;51.456;7.248;2023-04-24T05:37:35;2.47;;;2.27;;
2934;SDS011;2462;51.456;7.248;2023-04-24T05:40:01;2.80;;;2.50;;
2934;SDS011;2462;51.456;7.248;2023-04-24T05:42:29;3.37;;;2.37;;
2934;SDS011;2462;51.456;7.248;2023-04-24T05:44:54;3.20;;;2.80;;
2934;SDS011;2462;51.456;7.248;2023-04-24T05:47:20;2.70;;;2.50;;
2934;SDS011;2462;51.456;7.248;2023-04-24T05:49:47;3.10;;;2.63;;
2934;SDS011;2462;51.456;7.248;2023-04-24T05:52:12;3.00;;;2.80;;
2934;SDS011;2462;51.456;7.248;2023-04-24T05:54:38;3.40;;;2.93;;
2934;SDS011;2462;51.456;7.248;2023-04-24T05:57:04;3.17;;;2.87;;
2934;SDS011;2462;51.456;7.248;2023-04-24T05:59:32;3.33;;;2.90;;
2934;SDS011;2462;51.456;7.248;2023-04-24T06:01:59;2.83;;;2.63;;
2934;SDS011;2462;51.456;7.248;2023-04-24T06:04:24;2.63;;;2.33;;
2934;SDS011;2462;51.456;7.248;2023-04-24T06:06:50;2.93;;;2.40;;
2934;SDS011;2462;51.456;7.248;2023-04-24T06:09:20;2.63;;;2.43;;
2934;SDS011;2462;51.456;7.248;2023-04-24T06:11:47;2.70;;;2.50;;
2934;SDS011;2462;51.456;7.248;2023-04-24T06:14:12;2.50;;;2.30;;
2934;SDS011;2462;51.456;7.248;2023-04-24T06:16:38;1.90;;;1.80;;
2934;SDS011;2462;51.456;7.248;2023-04-24T06:19:05;2.40;;;1.97;;
2934;SDS011;2462;51.456;7.248;2023-04-24T06:21:30;2.00;;;1.80;;
2934;SDS011;2462;51.456;7.248;2023-04-24T06:23:56;2.83;;;2.60;;
2934;SDS011;2462;51.456;7.248;2023-04-24T06:26:23;2.23;;;2.03;;
2934;SDS011;2462;51.456;7.248;2023-04-24T06:28:50;2.07;;;1.87;;
2934;SDS011;2462;51.456;7.248;2023-04-24T06:31:16;1.90;;;1.80;;
2934;SDS011;2462;51.456;7.248;2023-04-24T06:33:42;2.63;;;2.43;;
2934;SDS011;2462;51.456;7.248;2023-04-24T06:36:08;3.10;;;2.60;;
2934;SDS011;2462;51.456;7.248;2023-04-24T06:38:33;2.20;;;2.00;;
2934;SDS011;2462;51.456;7.248;2023-04-24T06:40:59;2.70;;;2.30;;
2934;SDS011;2462;51.456;7.248;2023-04-24T06:43:25;2.67;;;2.47;;
2934;SDS011;2462;51.456;7.248;2023-04-24T06:45:50;2.47;;;2.27;;
2934;SDS011;2462;51.456;7.248;2023-04-24T06:48:16;2.60;;;2.40;;
2934;SDS011;2462;51.456;7.248;2023-04-24T06:50:41;2.60;;;2.40;;
2934;SDS011;2462;51.456;7.248;2023-04-24T06:53:07;2.40;;;2.20;;
2934;SDS011;2462;51.456;7.248;2023-04-24T06:55:39;2.93;;;2.47;;
2934;SDS011;2462;51.456;7.248;2023-04-24T06:58:05;2.47;;;2.27;;
2934;SDS011;2462;51.456;7.248;2023-04-24T07:00:31;2.27;;;1.90;;
2934;SDS011;2462;51.456;7.248;2023-04-24T07:02:56;2.50;;;2.30;;
2934;SDS011;2462;51.456;7.248;2023-04-24T07:05:22;3.50;;;2.50;;
2934;SDS011;2462;51.456;7.248;2023-04-24T07:07:48;4.20;;;2.73;;
2934;SDS011;2462;51.456;7.248;2023-04-24T07:10:14;2.83;;;2.10;;
2934;SDS011;2462;51.456;7.248;2023-04-24T07:12:40;3.40;;;2.87;;
2934;SDS011;2462;51.456;7.248;2023-04-24T07:15:06;3.77;;;2.30;;
2934;SDS011;2462;51.456;7.248;2023-04-24T07:17:33;2.47;;;2.20;;
2934;SDS011;2462;51.456;7.248;2023-04-24T07:19:59;3.20;;;2.90;;
2934;SDS011;2462;51.456;7.248;2023-04-24T07:22:25;3.80;;;2.87;;
2934;SDS011;2462;51.456;7.248;2023-04-24T07:24:51;2.97;;;2.50;;
2934;SDS011;2462;51.456;7.248;2023-04-24T07:27:16;2.77;;;2.47;;
2934;SDS011;2462;51.456;7.248;2023-04-24T07:29:42;3.27;;;2.70;;
2934;SDS011;2462;51.456;7.248;2023-04-24T07:32:07;3.13;;;2.40;;
2934;SDS011;2462;51.456;7.248;2023-04-24T07:34:34;4.13;;;2.30;;
2934;SDS011;2462;51.456;7.248;2023-04-24T07:36:59;2.00;;;1.80;;
2934;SDS011;2462;51.456;7.248;2023-04-24T07:39:25;2.93;;;2.50;;
2934;SDS011;2462;51.456;7.248;2023-04-24T07:41:51;2.70;;;2.50;;
2934;SDS011;2462;51.456;7.248;2023-04-24T07:44:17;9.70;;;2.30;;
2934;SDS011;2462;51.456;7.248;2023-04-24T07:46:42;2.77;;;2.57;;
2934;SDS011;2462;51.456;7.248;2023-04-24T07:49:08;2.47;;;2.10;;
2934;SDS011;2462;51.456;7.248;2023-04-24T07:51:33;2.33;;;2.13;;
2934;SDS011;2462;51.456;7.248;2023-04-24T07:54:03;2.37;;;2.17;;
2934;SDS011;2462;51.456;7.248;2023-04-24T07:56:30;2.50;;;2.30;;
2934;SDS011;2462;51.456;7.248;2023-04-24T07:58:56;3.50;;;2.70;;
2934;SDS011;2462;51.456;7.248;2023-04-24T08:01:22;2.73;;;2.53;;
2934;SDS011;2462;51.456;7.248;2023-04-24T08:03:47;2.70;;;2.07;;
2934;SDS011;2462;51.456;7.248;2023-04-24T08:06:13;2.57;;;2.37;;
2934;SDS011;2462;51.456;7.248;2023-04-24T08:08:39;3.30;;;2.47;;
2934;SDS011;2462;51.456;7.248;2023-04-24T08:11:04;3.40;;;2.30;;
2934;SDS011;2462;51.456;7.248;2023-04-24T08:13:30;2.40;;;2.10;;
2934;SDS011;2462;51.456;7.248;2023-04-24T08:15:56;2.10;;;2.00;;
2934;SDS011;2462;51.456;7.248;2023-04-24T08:18:22;4.40;;;2.33;;
2934;SDS011;2462;51.456;7.248;2023-04-24T08:20:47;2.57;;;2.20;;
2934;SDS011;2462;51.456;7.248;2023-04-24T08:23:13;3.83;;;1.50;;
2934;SDS011;2462;51.456;7.248;2023-04-24T08:25:39;2.93;;;2.37;;
2934;SDS011;2462;51.456;7.248;2023-04-24T08:28:05;2.30;;;1.90;;
2934;SDS011;2462;51.456;7.248;2023-04-24T08:30:33;2.23;;;2.03;;
2934;SDS011;2462;51.456;7.248;2023-04-24T08:32:58;1.73;;;1.57;;
2934;SDS011;2462;51.456;7.248;2023-04-24T08:35:24;3.13;;;2.07;;
2934;SDS011;2462;51.456;7.248;2023-04-24T08:37:51;1.90;;;1.80;;
2934;SDS011;2462;51.456;7.248;2023-04-24T08:40:18;1.93;;;1.80;;
2934;SDS011;2462;51.456;7.248;2023-04-24T08:42:51;2.17;;;1.90;;
2934;SDS011;2462;51.456;7.248;2023-04-24T08:45:19;1.77;;;1.60;;
2934;SDS011;2462;51.456;7.248;2023-04-24T08:47:45;2.17;;;1.97;;
2934;SDS011;2462;51.456;7.248;2023-04-24T08:50:12;2.07;;;1.90;;
2934;SDS011;2462;51.456;7.248;2023-04-24T08:52:38;2.10;;;1.90;;
2934;SDS011;2462;51.456;7.248;2023-04-24T08:55:04;1.90;;;1.70;;
2934;SDS011;2462;51.456;7.248;2023-04-24T08:57:30;1.83;;;1.73;;
2934;SDS011;2462;51.456;7.248;2023-04-24T08:59:57;2.07;;;1.87;;
2934;SDS011;2462;51.456;7.248;2023-04-24T09:02:24;2.53;;;1.80;;
2934;SDS011;2462;51.456;7.248;2023-04-24T09:04:50;3.80;;;1.70;;
2934;SDS011;2462;51.456;7.248;2023-04-24T09:07:17;2.00;;;1.80;;
2934;SDS011;2462;51.456;7.248;2023-04-24T09:09:44;3.20;;;1.90;;
2934;SDS011;2462;51.456;7.248;2023-04-24T09:12:10;1.73;;;1.63;;
2934;SDS011;2462;51.456;7.248;2023-04-24T09:14:36;2.50;;;2.30;;
2934;SDS011;2462;51.456;7.248;2023-04-24T09:17:09;3.20;;;1.97;;
2934;SDS011;2462;51.456;7.248;2023-04-24T09:19:35;1.97;;;1.80;;
2934;SDS011;2462;51.456;7.248;2023-04-24T09:22:04;4.27;;;1.80;;
2934;SDS011;2462;51.456;7.248;2023-04-24T09:24:31;3.57;;;2.50;;
2934;SDS011;2462;51.456;7.248;2023-04-24T09:26:57;1.90;;;1.80;;
2934;SDS011;2462;51.456;7.248;2023-04-24T09:29:23;2.57;;;2.20;;
2934;SDS011;2462;51.456;7.248;2023-04-24T09:31:49;1.83;;;1.70;;
2934;SDS011;2462;51.456;7.248;2023-04-24T09:34:18;3.87;;;2.10;;
2934;SDS011;2462;51.456;7.248;2023-04-24T09:36:47;2.60;;;2.40;;
2934;SDS011;2462;51.456;7.248;2023-04-24T09:39:14;1.93;;;1.80;;
2934;SDS011;2462;51.456;7.248;2023-04-24T09:41:43;2.53;;;1.80;;
2934;SDS011;2462;51.456;7.248;2023-04-24T09:44:14;2.37;;;2.17;;
2934;SDS011;2462;51.456;7.248;2023-04-24T09:46:41;1.70;;;1.60;;
2934;SDS011;2462;51.456;7.248;2023-04-24T09:49:09;3.90;;;1.93;;
2934;SDS011;2462;51.456;7.248;2023-04-24T09:51:36;2.30;;;2.10;;
2934;SDS011;2462;51.456;7.248;2023-04-24T09:54:03;2.30;;;2.10;;
2934;SDS011;2462;51.456;7.248;2023-04-24T09:56:35;3.47;;;1.80;;
2934;SDS011;2462;51.456;7.248;2023-04-24T09:59:07;2.30;;;2.03;;
2934;SDS011;2462;51.456;7.248;2023-04-24T10:01:33;2.20;;;1.90;;
2934;SDS011;2462;51.456;7.248;2023-04-24T10:03:59;1.70;;;1.60;;
2934;SDS011;2462;51.456;7.248;2023-04-24T10:06:32;3.00;;;1.60;;
2934;SDS011;2462;51.456;7.248;2023-04-24T10:08:59;3.00;;;2.03;;
2934;SDS011;2462;51.456;7.248;2023-04-24T10:11:26;3.33;;;1.63;;
2934;SDS011;2462;51.456;7.248;2023-04-24T10:13:52;3.03;;;1.70;;
2934;SDS011;2462;51.456;7.248;2023-04-24T10:16:19;2.17;;;1.97;;
2934;SDS011;2462;51.456;7.248;2023-04-24T10:18:46;2.33;;;1.77;;
2934;SDS011;2462;51.456;7.248;2023-04-24T10:21:13;1.97;;;1.77;;
2934;SDS011;2462;51.456;7.248;2023-04-24T10:23:40;2.10;;;1.73;;
2934;SDS011;2462;51.456;7.248;2023-04-24T10:26:07;1.70;;;1.60;;
2934;SDS011;2462;51.456;7.248;2023-04-24T10:28:38;4.00;;;1.77;;
2934;SDS011;2462;51.456;7.248;2023-04-24T10:31:06;2.27;;;2.07;;
2934;SDS011;2462;51.456;7.248;2023-04-24T10:33:32;1.53;;;1.43;;
2934;SDS011;2462;51.456;7.248;2023-04-24T10:35:57;2.27;;;1.80;;
2934;SDS011;2462;51.456;7.248;2023-04-24T10:38:24;2.10;;;1.90;;
2934;SDS011;2462;51.456;7.248;2023-04-24T10:40:57;2.17;;;1.70;;
2934;SDS011;2462;51.456;7.248;2023-04-24T10:43:32;1.70;;;1.57;;
2934;SDS011;2462;51.456;7.248;2023-04-24T10:46:02;3.70;;;1.67;;
2934;SDS011;2462;51.456;7.248;2023-04-24T10:48:29;1.80;;;1.60;;
2934;SDS011;2462;51.456;7.248;2023-04-24T10:50:55;2.20;;;1.90;;
2934;SDS011;2462;51.456;7.248;2023-04-24T10:53:22;3.00;;;1.90;;
2934;SDS011;2462;51.456;7.248;2023-04-24T10:55:52;1.93;;;1.50;;
2934;SDS011;2462;51.456;7.248;2023-04-24T10:58:42;2.27;;;1.77;;
2934;SDS011;2462;51.456;7.248;2023-04-24T11:01:25;2.90;;;1.83;;
2934;SDS011;2462;51.456;7.248;2023-04-24T11:03:54;2.90;;;1.73;;
2934;SDS011;2462;51.456;7.248;2023-04-24T11:06:42;1.70;;;1.60;;
2934;SDS011;2462;51.456;7.248;2023-04-24T11:09:08;1.80;;;1.47;;
2934;SDS011;2462;51.456;7.248;2023-04-24T11:11:37;2.70;;;1.70;;
2934;SDS011;2462;51.456;7.248;2023-04-24T11:14:09;2.07;;;1.53;;
2934;SDS011;2462;51.456;7.248;2023-04-24T11:19:05;2.90;;;1.57;;
2934;SDS011;2462;51.456;7.248;2023-04-24T11:21:39;2.03;;;1.67;;
2934;SDS011;2462;51.456;7.248;2023-04-24T11:35:00;2.13;;;1.90;;
2934;SDS011;2462;51.456;7.248;2023-04-24T11:37:33;1.80;;;1.70;;
2934;SDS011;2462;51.456;7.248;2023-04-24T11:39:59;2.13;;;1.97;;
2934;SDS011;2462;51.456;7.248;2023-04-24T11:42:24;2.10;;;1.60;;
2934;SDS011;2462;51.456;7.248;2023-04-24T11:44:53;1.90;;;1.70;;
2934;SDS011;2462;51.456;7.248;2023-04-24T11:47:31;1.93;;;1.83;;
2934;SDS011;2462;51.456;7.248;2023-04-24T11:49:58;4.23;;;2.10;;
2934;SDS011;2462;51.456;7.248;2023-04-24T11:52:29;4.87;;;1.83;;
2934;SDS011;2462;51.456;7.248;2023-04-24T11:54:55;2.53;;;2.30;;
2934;SDS011;2462;51.456;7.248;2023-04-24T11:57:21;8.60;;;2.10;;
2934;SDS011;2462;51.456;7.248;2023-04-24T11:59:51;2.30;;;1.83;;
2934;SDS011;2462;51.456;7.248;2023-04-24T12:02:20;3.30;;;1.90;;
2934;SDS011;2462;51.456;7.248;2023-04-24T12:04:46;3.07;;;2.37;;
2934;SDS011;2462;51.456;7.248;2023-04-24T12:07:12;2.87;;;2.30;;
2934;SDS011;2462;51.456;7.248;2023-04-24T12:09:44;7.40;;;2.13;;
2934;SDS011;2462;51.456;7.248;2023-04-24T12:12:15;4.40;;;2.37;;
2934;SDS011;2462;51.456;7.248;2023-04-24T12:14:47;2.13;;;1.93;;
2934;SDS011;2462;51.456;7.248;2023-04-24T12:17:14;2.30;;;2.10;;
2934;SDS011;2462;51.456;7.248;2023-04-24T12:19:44;2.03;;;1.57;;
2934;SDS011;2462;51.456;7.248;2023-04-24T12:22:11;2.57;;;1.90;;
2934;SDS011;2462;51.456;7.248;2023-04-24T12:24:55;2.20;;;2.00;;
2934;SDS011;2462;51.456;7.248;2023-04-24T12:27:21;2.40;;;1.70;;
2934;SDS011;2462;51.456;7.248;2023-04-24T12:29:57;3.10;;;2.27;;
2934;SDS011;2462;51.456;7.248;2023-04-24T12:32:23;2.73;;;1.83;;
2934;SDS011;2462;51.456;7.248;2023-04-24T12:34:53;4.60;;;2.27;;
2934;SDS011;2462;51.456;7.248;2023-04-24T12:37:20;5.23;;;1.87;;
2934;SDS011;2462;51.456;7.248;2023-04-24T12:42:32;2.83;;;1.93;;
2934;SDS011;2462;51.456;7.248;2023-04-24T12:45:00;5.40;;;2.23;;
2934;SDS011;2462;51.456;7.248;2023-04-24T12:47:28;3.13;;;2.17;;
2934;SDS011;2462;51.456;7.248;2023-04-24T12:49:54;3.20;;;2.27;;
2934;SDS011;2462;51.456;7.248;2023-04-24T12:52:20;3.93;;;1.90;;
2934;SDS011;2462;51.456;7.248;2023-04-24T12:54:52;3.17;;;2.10;;
2934;SDS011;2462;51.456;7.248;2023-04-24T12:57:18;3.40;;;2.27;;
2934;SDS011;2462;51.456;7.248;2023-04-24T12:59:44;2.90;;;1.80;;
2934;SDS011;2462;51.456;7.248;2023-04-24T13:02:10;2.90;;;2.03;;
2934;SDS011;2462;51.456;7.248;2023-04-24T13:04:36;2.90;;;2.00;;
2934;SDS011;2462;51.456;7.248;2023-04-24T13:07:02;3.80;;;2.67;;
2934;SDS011;2462;51.456;7.248;2023-04-24T13:09:27;1.90;;;1.53;;
2934;SDS011;2462;51.456;7.248;2023-04-24T13:11:53;2.70;;;2.20;;
2934;SDS011;2462;51.456;7.248;2023-04-24T13:14:20;4.90;;;2.60;;
2934;SDS011;2462;51.456;7.248;2023-04-24T13:16:45;2.27;;;2.07;;
2934;SDS011;2462;51.456;7.248;2023-04-24T13:19:11;3.33;;;2.03;;
2934;SDS011;2462;51.456;7.248;2023-04-24T13:21:36;3.40;;;1.60;;
2934;SDS011;2462;51.456;7.248;2023-04-24T13:24:02;4.03;;;2.20;;
2934;SDS011;2462;51.456;7.248;2023-04-24T13:26:29;2.90;;;2.57;;
2934;SDS011;2462;51.456;7.248;2023-04-24T13:28:55;4.40;;;2.50;;
2934;SDS011;2462;51.456;7.248;2023-04-24T13:31:21;2.60;;;2.40;;
2934;SDS011;2462;51.456;7.248;2023-04-24T13:33:46;3.47;;;2.20;;
2934;SDS011;2462;51.456;7.248;2023-04-24T13:36:12;2.50;;;2.00;;
2934;SDS011;2462;51.456;7.248;2023-04-24T13:38:38;5.60;;;2.17;;
2934;SDS011;2462;51.456;7.248;2023-04-24T13:41:03;5.80;;;2.07;;
2934;SDS011;2462;51.456;7.248;2023-04-24T13:43:29;4.93;;;1.73;;
2934;SDS011;2462;51.456;7.248;2023-04-24T13:45:54;9.17;;;2.00;;
2934;SDS011;2462;51.456;7.248;2023-04-24T13:48:20;3.67;;;2.37;;
2934;SDS011;2462;51.456;7.248;2023-04-24T13:50:46;4.83;;;2.23;;
2934;SDS011;2462;51.456;7.248;2023-04-24T13:53:13;2.70;;;1.77;;
2934;SDS011;2462;51.456;7.248;2023-04-24T13:55:38;4.70;;;2.23;;
2934;SDS011;2462;51.456;7.248;2023-04-24T13:58:04;5.40;;;1.80;;
2934;SDS011;2462;51.456;7.248;2023-04-24T14:00:30;6.80;;;2.80;;
2934;SDS011;2462;51.456;7.248;2023-04-24T14:02:56;5.10;;;2.13;;
2934;SDS011;2462;51.456;7.248;2023-04-24T14:05:21;2.03;;;1.80;;
2934;SDS011;2462;51.456;7.248;2023-04-24T14:07:47;3.57;;;1.93;;
2934;SDS011;2462;51.456;7.248;2023-04-24T14:10:12;3.73;;;1.80;;
2934;SDS011;2462;51.456;7.248;2023-04-24T14:12:38;5.90;;;1.73;;
2934;SDS011;2462;51.456;7.248;2023-04-24T14:15:04;4.13;;;1.83;;
2934;SDS011;2462;51.456;7.248;2023-04-24T14:17:30;8.03;;;2.00;;
2934;SDS011;2462;51.456;7.248;2023-04-24T14:19:55;5.70;;;1.93;;
2934;SDS011;2462;51.456;7.248;2023-04-24T14:22:21;6.20;;;1.87;;
2934;SDS011;2462;51.456;7.248;2023-04-24T14:24:47;3.87;;;2.40;;
2934;SDS011;2462;51.456;7.248;2023-04-24T14:27:13;3.07;;;1.60;;
2934;SDS011;2462;51.456;7.248;2023-04-24T14:29:38;7.40;;;2.10;;
2934;SDS011;2462;51.456;7.248;2023-04-24T14:32:04;5.07;;;2.00;;
2934;SDS011;2462;51.456;7.248;2023-04-24T14:34:30;5.50;;;1.90;;
2934;SDS011;2462;51.456;7.248;2023-04-24T14:36:55;2.70;;;1.80;;
2934;SDS011;2462;51.456;7.248;2023-04-24T14:39:21;4.20;;;1.63;;
2934;SDS011;2462;51.456;7.248;2023-04-24T14:41:46;4.13;;;2.10;;
2934;SDS011;2462;51.456;7.248;2023-04-24T14:44:12;7.23;;;1.97;;
2934;SDS011;2462;51.456;7.248;2023-04-24T14:46:37;3.13;;;2.20;;
2934;SDS011;2462;51.456;7.248;2023-04-24T14:49:03;4.23;;;1.97;;
2934;SDS011;2462;51.456;7.248;2023-04-24T14:51:29;6.73;;;1.93;;
2934;SDS011;2462;51.456;7.248;2023-04-24T14:53:55;4.93;;;2.00;;
2934;SDS011;2462;51.456;7.248;2023-04-24T14:56:21;3.03;;;1.80;;
2934;SDS011;2462;51.456;7.248;2023-04-24T14:58:47;3.30;;;2.07;;
2934;SDS011;2462;51.456;7.248;2023-04-24T15:01:13;4.33;;;2.07;;
2934;SDS011;2462;51.456;7.248;2023-04-24T15:03:39;3.00;;;1.60;;
2934;SDS011;2462;51.456;7.248;2023-04-24T15:06:04;8.23;;;2.33;;
2934;SDS011;2462;51.456;7.248;2023-04-24T15:08:30;4.57;;;1.40;;
2934;SDS011;2462;51.456;7.248;2023-04-24T15:10:56;4.13;;;1.90;;
2934;SDS011;2462;51.456;7.248;2023-04-24T15:13:21;2.80;;;1.93;;
2934;SDS011;2462;51.456;7.248;2023-04-24T15:15:47;3.63;;;1.83;;
2934;SDS011;2462;51.456;7.248;2023-04-24T15:18:12;2.83;;;1.80;;
2934;SDS011;2462;51.456;7.248;2023-04-24T15:20:38;4.47;;;1.90;;
2934;SDS011;2462;51.456;7.248;2023-04-24T15:23:04;5.17;;;1.80;;
2934;SDS011;2462;51.456;7.248;2023-04-24T15:25:30;7.50;;;2.30;;
2934;SDS011;2462;51.456;7.248;2023-04-24T15:27:57;2.27;;;1.53;;
2934;SDS011;2462;51.456;7.248;2023-04-24T15:30:24;3.77;;;1.60;;